Flight Track Log - Related Links

Times and Time Zones

All times are in EST time to prevent confusion due to time zone crossing. See the FIN51 flight status page for this flight to view local times or setup timezone preferences in your user account.

Time Position Orientation Groundspeed Altitude Reporting Facility
EST Latitude Longitude Course Direction KTS MPH feet Rate Location/Type
11:05AM 60.3010 24.8690 251° West 158 182 2,200  Level FlightAware
11:06AM 60.3080 24.8110 284° West 211 243 2,400 831 Climbing FlightAware
11:06AM 60.3370 24.7770 330° Northwest 263 303 3,100 2,175 Climbing FlightAware
11:07AM 60.3950 24.8020 12° North 278 320 5,300 2,700 Climbing FlightAware
11:08AM 60.4150 24.8720 60° Northeast 284 327 6,700 2,903 Climbing FlightAware
11:08AM 60.4260 24.9610 76° East 288 331 8,300 2,754 Climbing FlightAware
11:09AM 60.4500 25.0250 53° Northeast 296 341 9,500 2,108 Climbing FlightAware
11:09AM 60.4880 25.1270 53° Northeast 326 375 10,900 1,535 Climbing FlightAware
11:10AM 60.5240 25.2250 53° Northeast 358 412 11,700 1,895 Climbing FlightAware
11:11AM 60.5620 25.3280 53° Northeast 366 421 13,300 2,520 Climbing FlightAware
11:11AM 60.5750 25.3650 54° Northeast 371 427 13,800 2,025 Climbing FlightAware
11:12AM 60.6450 25.5580 53° Northeast 388 447 16,000 2,059 Climbing FlightAware
11:13AM 60.6820 25.6590 53° Northeast 393 452 17,300 2,229 Climbing FlightAware
11:13AM 60.7220 25.7710 54° Northeast 405 466 18,600 2,219 Climbing FlightAware
11:14AM 60.7660 25.8940 54° Northeast 409 471 20,000 1,971 Climbing FlightAware
11:14AM 60.7980 25.9860 54° Northeast 416 479 20,900 1,800 Climbing FlightAware
11:15AM 60.8450 26.1190 54° Northeast 419 482 22,100 1,778 Climbing FlightAware
11:16AM 60.8910 26.2490 54° Northeast 426 490 23,300 1,680 Climbing FlightAware
11:16AM 60.9320 26.3670 54° Northeast 437 503 24,200 1,541 Climbing FlightAware
11:17AM 60.9790 26.5020 54° Northeast 443 510 25,200 1,360 Climbing FlightAware
11:18AM 61.0190 26.6210 55° Northeast 451 519 25,900 1,250 Climbing FlightAware
11:18AM 61.0630 26.7460 54° Northeast 454 522 26,700 1,286 Climbing FlightAware
11:19AM 61.1050 26.8710 55° Northeast 456 525 27,400 1,143 Climbing FlightAware
11:19AM 61.1420 26.9800 55° Northeast 463 533 27,900 923 Climbing FlightAware
11:20AM 61.1850 27.1060 55° Northeast 474 545 28,400 880 Climbing FlightAware
11:21AM 61.2360 27.2600 55° Northeast 484 557 29,000 975 Climbing FlightAware
11:21AM 61.2880 27.4140 55° Northeast 487 560 29,700 857 Climbing FlightAware
11:22AM 61.3320 27.5480 56° Northeast 492 566 30,100 923 Climbing FlightAware
11:22AM 61.3880 27.7190 56° Northeast 497 572 30,900 1,012 Climbing FlightAware
11:23AM 61.4440 27.8900 56° Northeast 503 579 31,500 732 Climbing FlightAware
11:24AM 61.4950 28.0470 56° Northeast 508 585 31,900 892 Climbing FlightAware
11:24AM 61.5380 28.1800 56° Northeast 503 579 32,600 1,000 Climbing FlightAware
11:25AM 61.5790 28.3080 56° Northeast 506 582 33,000 621 Climbing FlightAware
11:25AM 61.6150 28.4210 56° Northeast 509 586 33,200 587 Climbing FlightAware
11:26AM 61.7000 28.6900 56° Northeast 515 593 33,900 761 Climbing FlightAware
11:28AM 61.7880 28.9700 56° Northeast 510 587 34,900 744 Climbing FlightAware
11:28AM 61.8580 29.1990 57° Northeast 512 589 35,400 511 Climbing FlightAware
11:29AM 61.9110 29.3720 57° Northeast 513 590 35,700 380 Climbing FlightAware
11:30AM 61.9600 29.5330 57° Northeast 517 595 35,900 380 Climbing FlightAware
11:30AM 62.0130 29.7080 57° Northeast 519 597 36,200 474 Climbing FlightAware
11:31AM 62.0580 29.8580 57° Northeast 517 595 36,500 600 Climbing FlightAware
11:32AM 62.1010 30.0010 57° Northeast 515 593 36,900 411 Climbing FlightAware
11:32AM 62.1470 30.1560 58° Northeast 516 594 37,000 87 Climbing FlightAware
11:33AM 62.1880 30.2960 58° Northeast 517 595 37,000  Level FlightAware
11:33AM 62.2380 30.4680 58° Northeast 514 592 37,000  Level FlightAware
11:34AM 62.2690 30.5750 58° Northeast 513 590 37,000  Level FlightAware
11:34AM 62.3080 30.7090 58° Northeast 515 593 37,000  Level FlightAware
11:35AM 62.3490 30.8540 59° Northeast 515 593 37,000  Level FlightAware
11:36AM 62.4130 31.0860 59° Northeast 515 593 37,000  Level FlightAware
11:36AM 62.4490 31.2620 66° East 515 593 37,000  Level FlightAware
11:37AM 62.4870 31.4550 67° East 515 593 37,000  Level FlightAware
11:38AM 62.5140 31.5970 68° East 516 594 37,000  Level FlightAware
11:38AM 62.5590 31.8360 68° East 515 593 37,000  Level FlightAware
11:39AM 62.5800 31.9490 68° East 515 593 37,000  Level FlightAware
11:40AM 62.6150 32.1380 68° East 516 594 37,000  Level FlightAware
11:40AM 62.6510 32.3380 69° East 516 594 37,000  Level FlightAware
11:41AM 62.6770 32.4840 69° East 516 594 37,000  Level FlightAware
11:41AM 62.7070 32.6530 69° East 516 594 37,000  Level FlightAware
11:42AM 62.7540 32.9150 69° East 515 593 37,000  Level FlightAware
11:43AM 62.7960 33.1560 69° East 513 590 37,000  Level FlightAware
11:44AM 62.8250 33.3280 70° East 512 589 37,000  Level FlightAware
11:44AM 62.8550 33.4990 69° East 513 590 37,000  Level FlightAware
11:45AM 62.8920 33.7180 70° East 514 592 37,000  Level FlightAware
11:46AM 62.9360 33.9860 70° East 515 593 37,000  Level FlightAware
11:46AM 62.9640 34.1560 70° East 514 592 37,000  Level FlightAware
11:47AM 62.9920 34.3260 70° East 514 592 37,000  Level FlightAware
11:48AM 63.0200 34.4950 70° East 514 592 37,000  Level FlightAware
11:49AM 63.0680 34.7950 70° East 516 594 37,000  Level FlightAware
11:49AM 63.0950 34.9700 71° East 515 593 37,000  Level FlightAware
11:50AM 63.1300 35.1920 71° East 513 590 37,000  Level FlightAware
11:50AM 63.1530 35.3420 71° East 512 589 37,000  Level FlightAware
11:52AM 63.2100 35.7130 71° East 512 589 37,000  Level FlightAware
11:52AM 63.2360 35.8860 71° East 512 589 37,000  Level FlightAware
11:53AM 63.2850 36.2220 72° East 513 590 37,000  Level FlightAware
11:54AM 63.3300 36.5350 72° East 513 590 37,000  Level FlightAware
11:55AM 63.3480 36.7150 77° East 508 585 37,000  Level FlightAware
11:56AM 63.3600 36.8940 81° East 509 586 37,000  Level FlightAware
11:56AM 63.3730 37.0730 81° East 507 583 37,000  Level FlightAware
11:57AM 63.3960 37.4320 82° East 509 586 37,000  Level FlightAware
11:58AM 63.4080 37.6140 82° East 510 587 37,000  Level FlightAware
11:59AM 63.4180 37.7820 82° East 510 587 37,000  Level FlightAware
12:00PM 63.4410 38.1620 82° East 513 590 37,000  Level FlightAware
12:01PM 63.4560 38.4160 82° East 515 593 37,000  Level FlightAware
12:01PM 63.4660 38.5820 82° East 515 593 37,000  Level FlightAware
12:02PM 63.4860 38.9530 83° East 513 590 37,000  Level FlightAware
12:03PM 63.4960 39.1390 83° East 513 590 37,000  Level FlightAware
12:04PM 63.5080 39.3720 83° East 515 593 37,000  Level FlightAware
12:05PM 63.5260 39.7170 83° East 516 594 37,000  Level FlightAware
12:05PM 63.5340 39.8780 84° East 515 593 37,000  Level FlightAware
12:05PM 63.5370 39.9530 85° East 515 593 37,000  Level FlightAware
12:06PM 63.5510 40.2430 84° East 515 593 37,000  Level FlightAware
12:07PM 63.5650 40.5650 84° East 515 593 37,000  Level FlightAware
12:08PM 63.5740 40.7750 84° East 513 590 37,000  Level FlightAware
12:08PM 63.5800 40.9270 85° East 513 590 37,000  Level FlightAware
12:09PM 63.5890 41.1470 85° East 513 590 37,000  Level FlightAware
12:10PM 63.5970 41.3560 85° East 515 593 37,000  Level FlightAware
12:11PM 63.6060 41.5810 85° East 515 593 37,000  Level FlightAware
12:11PM 63.6140 41.7860 85° East 516 594 37,000  Level FlightAware
12:12PM 63.6260 42.1400 85° East 519 597 37,000  Level FlightAware
12:13PM 63.6350 42.3930 85° East 519 597 37,000  Level FlightAware
12:13PM 63.6380 42.4910 86° East 518 596 37,000  Level FlightAware
12:14PM 63.6450 42.6690 85° East 518 596 37,000  Level FlightAware
12:15PM 63.6560 42.9660 85° East 518 596 37,000  Level FlightAware
12:15PM 63.6610 43.0760 84° East 518 596 37,000  Level FlightAware
12:16PM 63.6670 43.2410 85° East 518 596 37,000  Level FlightAware
12:17PM 63.6730 43.4050 85° East 518 596 37,000  Level FlightAware
12:18PM 63.6840 43.6800 85° East 518 596 37,000  Level FlightAware
12:18PM 63.6900 43.8360 85° East 518 596 37,000  Level FlightAware
12:19PM 63.6960 44.0000 85° East 518 596 37,000  Level FlightAware
12:20PM 63.7070 44.2800 85° East 518 596 37,000  Level FlightAware
12:20PM 63.7110 44.3900 85° East 518 596 37,000  Level FlightAware
12:21PM 63.7220 44.6560 85° East 518 596 37,000  Level FlightAware
12:22PM 63.7280 44.8210 85° East 518 596 37,000  Level FlightAware
12:22PM 63.7340 44.9900 85° East 518 596 37,000  Level FlightAware
12:23PM 63.7410 45.1550 84° East 518 596 37,000  Level FlightAware
12:23PM 63.7430 45.2100 85° East 518 596 37,000  Level FlightAware
12:27PM 63.7787 46.1833 85° East  Level Estimated
12:28PM 63.7883 46.4833 86° East  Level Estimated
12:29PM 63.7974 46.7835 86° East  Level Estimated
12:30PM 63.8058 47.0838 86° East  Level Estimated
12:31PM 63.8136 47.3843 87° East  Level Estimated
12:32PM 63.8207 47.6850 87° East  Level Estimated
12:32PM 63.7010 48.4690 87° East 504 580 37,000  Level FlightAware
12:33PM 63.7000 48.6400 91° East 502 578 37,000  Level FlightAware
12:34PM 63.6970 48.9600 91° East 504 580 37,000  Level FlightAware
12:35PM 63.6930 49.2740 92° East 501 577 37,000  Level FlightAware
12:35PM 63.6910 49.4300 92° East 500 575 37,000  Level FlightAware
12:36PM 63.6880 49.6400 92° East 498 573 37,000  Level FlightAware
12:37PM 63.6820 49.9440 92° East 495 570 37,000  Level FlightAware
12:37PM 63.6790 50.1260 92° East 494 568 37,000  Level FlightAware
12:38PM 63.6740 50.3510 93° East 493 567 37,000  Level FlightAware
12:39PM 63.6700 50.5670 92° East 494 568 37,000  Level FlightAware
12:39PM 63.6650 50.7420 94° East 496 571 37,000  Level FlightAware
12:40PM 63.6610 50.9270 93° East 497 572 37,000  Level FlightAware
12:41PM 63.6540 51.2060 93° East 495 570 37,000  Level FlightAware
12:42PM 63.6480 51.4160 94° East 495 570 37,000  Level FlightAware
12:42PM 63.6440 51.5430 94° East 494 568 37,000  Level FlightAware
12:43PM 63.6340 51.8720 94° East 493 567 37,000  Level FlightAware
12:44PM 63.6270 52.0870 94° East 497 572 37,000  Level FlightAware
12:45PM 63.6190 52.3340 94° East 499 574 37,000  Level FlightAware
12:46PM 63.6090 52.6230 94° East 500 575 37,000  Level FlightAware
12:46PM 63.6040 52.7820 94° East 500 575 37,000  Level FlightAware
12:47PM 63.5990 52.9410 94° East 500 575 37,000  Level FlightAware
12:47PM 63.5940 53.0990 94° East 500 575 37,000  Level FlightAware
12:48PM 63.5910 53.1960 94° East 500 575 37,000  Level FlightAware
12:49PM 63.5850 53.4040 94° East 500 575 37,000  Level FlightAware
12:49PM 63.5810 53.5230 94° East 500 575 37,000  Level FlightAware
12:50PM 63.5740 53.7390 94° East 500 575 37,000  Level FlightAware
12:50PM 63.5690 53.8930 94° East 500 575 37,000  Level FlightAware
12:51PM 63.5660 54.0030 93° East 500 575 37,000  Level FlightAware
12:51PM 63.5610 54.1620 94° East 500 575 37,000  Level FlightAware
12:52PM 63.5560 54.3290 94° East 500 575 37,000  Level FlightAware
12:53PM 63.5500 54.5010 94° East 500 575 37,000  Level FlightAware
12:53PM 63.5470 54.6110 93° East 500 575 37,000  Level FlightAware
12:55PM 63.4750 55.5050 100° East 503 579 37,000  Level FlightAware
12:55PM 63.4660 55.6650 97° East 502 578 37,000  Level FlightAware
12:56PM 63.4540 55.8620 98° East 500 575 37,000  Level FlightAware
12:57PM 63.4420 56.0660 97° East 498 573 37,000  Level FlightAware
12:57PM 63.4350 56.1810 98° East 498 573 37,000  Level FlightAware
12:58PM 63.4220 56.3950 98° East 497 572 37,000  Level FlightAware
12:58PM 63.4130 56.5340 98° East 497 572 37,000  Level FlightAware
12:59PM 63.4020 56.7160 98° East 498 573 37,000  Level FlightAware
12:59PM 63.3910 56.8760 99° East 499 574 37,000  Level FlightAware
01:00PM 63.3800 57.0490 98° East 500 575 37,000  Level FlightAware
01:00PM 63.3690 57.2010 99° East 501 577 37,000  Level FlightAware
01:01PM 63.3580 57.3600 99° East 501 577 37,000  Level FlightAware
01:02PM 63.3430 57.5850 98° East 498 573 37,000  Level FlightAware
01:03PM 63.3240 57.8470 99° East 493 567 37,000  Level FlightAware
01:03PM 63.3090 58.0410 100° East 491 565 37,000  Level FlightAware
01:04PM 63.2910 58.2820 99° East 491 565 37,000  Level FlightAware
01:05PM 63.2690 58.5540 100° East 488 562 37,000  Level FlightAware
01:05PM 63.2580 58.6950 100° East 487 560 37,000  Level FlightAware
01:06PM 63.2430 58.8770 100° East 489 563 37,000  Level FlightAware
01:07PM 63.2240 59.0960 101° East 486 559 37,000  Level FlightAware
01:08PM 63.1990 59.3950 100° East 485 558 37,000  Level FlightAware
01:08PM 63.1880 59.5130 102° East 488 562 37,000  Level FlightAware
01:09PM 63.1710 59.7040 101° East 495 570 37,000  Level FlightAware
01:10PM 63.1520 59.9280 101° East 496 571 37,000  Level FlightAware
01:10PM 63.1390 60.0760 101° East 495 570 37,000 100 Level FlightAware
01:11PM 63.1250 60.2220 102° East 499 574 37,100 350 Climbing FlightAware
01:12PM 63.1010 60.5700 99° East 502 578 37,600 201 Climbing FlightAware
01:13PM 63.0800 60.8940 98° East 502 578 37,600  Level FlightAware
01:14PM 63.0680 61.0930 97° East 502 578 37,600  Level FlightAware
01:15PM 63.0510 61.3600 98° East 502 578 37,600  Level FlightAware
01:16PM 63.0370 61.5760 98° East 502 578 37,600  Level FlightAware
01:16PM 63.0300 61.6790 98° East 502 578 37,600  Level FlightAware
01:17PM 63.0170 61.8900 98° East 502 578 37,600  Level FlightAware
01:17PM 63.0070 62.0410 98° East 502 578 37,600  Level FlightAware
01:18PM 62.9970 62.1920 98° East 502 578 37,600  Level FlightAware
01:19PM 62.9780 62.4930 98° East 502 578 37,600  Level FlightAware
01:20PM 62.9720 62.5960 97° East 502 578 37,600  Level FlightAware
01:20PM 62.9620 62.7510 98° East 502 578 37,600  Level FlightAware
01:21PM 62.9510 62.9100 99° East 502 578 37,600  Level FlightAware
01:21PM 62.9450 63.0130 97° East 502 578 37,600  Level FlightAware
01:22PM 62.9380 63.1170 98° East 502 578 37,600 111 Level FlightAware
01:25PM 62.8670 63.9384 100° East  Level Estimated
01:26PM 62.8414 64.2207 101° East  Level Estimated
01:27PM 62.8152 64.5025 101° East  Level Estimated
01:28PM 62.7884 64.7838 102° East  Level Estimated
01:29PM 62.7612 65.0646 102° East  Level Estimated
01:30PM 62.7333 65.3449 102° East  Level Estimated
01:31PM 62.7049 65.6246 102° East  Level Estimated
01:32PM 62.6759 65.9038 103° East  Level Estimated
01:33PM 62.6464 66.1824 103° East  Level Estimated
01:34PM 62.6163 66.4605 103° East  Level Estimated
01:34PM 62.4910 66.9630 103° East 491 565 39,000  Level FlightAware
01:35PM 62.4500 67.2950 105° East 489 563 39,000  Level FlightAware
01:36PM 62.4300 67.4560 105° East 491 565 39,000  Level FlightAware
01:36PM 62.3990 67.7060 105° East 493 567 39,000  Level FlightAware
01:37PM 62.3820 67.8430 105° East 495 570 39,000  Level FlightAware
01:38PM 62.3450 68.1280 106° East 495 570 39,000  Level FlightAware
01:39PM 62.3060 68.4230 106° East 496 571 39,000  Level FlightAware
01:40PM 62.2720 68.6810 106° East 494 568 39,000  Level FlightAware
01:41PM 62.2400 68.9130 106° East 493 567 39,000  Level FlightAware
01:41PM 62.2130 69.1100 106° East 494 568 39,000  Level FlightAware
01:42PM 62.1940 69.2500 106° East 495 570 39,000  Level FlightAware
01:43PM 62.1670 69.4410 107° East 496 571 39,000  Level FlightAware
01:43PM 62.1460 69.5860 107° East 495 570 39,000  Level FlightAware
01:44PM 62.1270 69.7200 107° East 495 570 39,000  Level FlightAware
01:44PM 62.0980 69.9210 107° East 493 567 39,000  Level FlightAware
01:45PM 62.0820 70.0310 107° East 492 566 39,000  Level FlightAware
01:45PM 62.0580 70.1970 107° East 491 565 39,000  Level FlightAware
01:46PM 62.0340 70.3520 108° East 490 564 39,000  Level FlightAware
01:47PM 62.0060 70.5400 108° East 488 562 39,000  Level FlightAware
01:47PM 61.9750 70.7460 108° East 488 562 39,000  Level FlightAware
01:48PM 62.0060 70.5400 288° West 487 560 39,000  Level FlightAware
01:49PM 61.9690 70.7850 108° East 487 560 39,000  Level FlightAware
01:50PM 61.9260 71.0630 108° East 487 560 39,000  Level FlightAware
01:51PM 61.8980 71.2450 108° East 487 560 39,000  Level FlightAware
01:52PM 61.7750 72.0270 108° East 487 560 39,000  Level FlightAware
01:54PM 61.7320 72.3040 108° East 487 560 39,000  Level FlightAware
01:54PM 61.7030 72.4920 108° East 487 560 39,000  Level FlightAware
01:55PM 61.6750 72.6720 108° East 487 560 39,000  Level FlightAware
01:56PM 61.6530 72.8140 108° East 487 560 39,000  Level FlightAware
01:56PM 61.6320 72.9520 108° East 487 560 39,000  Level FlightAware
01:57PM 61.6180 73.0440 108° East 487 560 39,000  Level FlightAware
01:58PM 61.5890 73.2280 108° East 487 560 39,000  Level FlightAware
01:58PM 61.5610 73.4080 108° East 487 560 39,000  Level FlightAware
01:59PM 61.5320 73.5950 108° East 487 560 39,000  Level FlightAware
02:00PM 61.5110 73.7330 108° East 487 560 39,000  Level FlightAware
02:00PM 61.4970 73.8250 108° East 487 560 39,000  Level FlightAware
02:01PM 61.4700 74.0000 108° East 487 560 39,000  Level FlightAware
02:04PM 61.3567 74.6440 110° East  Level Estimated
02:05PM 61.3106 74.9003 110° East  Level Estimated
02:06PM 61.2639 75.1558 111° Southeast  Level Estimated
02:07PM 61.2168 75.4106 111° Southeast  Level Estimated
02:08PM 61.1692 75.6646 111° Southeast  Level Estimated
02:09PM 61.1211 75.9178 111° Southeast  Level Estimated
02:10PM 61.0726 76.1703 112° Southeast  Level Estimated
02:11PM 61.0236 76.4220 112° Southeast  Level Estimated
02:12PM 60.9741 76.6729 112° Southeast  Level Estimated
02:13PM 60.9242 76.9230 112° Southeast  Level Estimated
02:14PM 60.8737 77.1724 112° Southeast  Level Estimated
02:15PM 60.8229 77.4209 113° Southeast  Level Estimated
02:16PM 60.7716 77.6687 113° Southeast  Level Estimated
02:17PM 60.7198 77.9156 113° Southeast  Level Estimated
02:18PM 60.6675 78.1618 113° Southeast  Level Estimated
02:19PM 60.6149 78.4072 114° Southeast  Level Estimated
02:20PM 60.5617 78.6517 114° Southeast  Level Estimated
02:21PM 60.5082 78.8955 114° Southeast  Level Estimated
02:22PM 60.4542 79.1384 114° Southeast  Level Estimated
02:23PM 60.3997 79.3805 114° Southeast  Level Estimated
02:24PM 60.3448 79.6218 115° Southeast  Level Estimated
02:25PM 60.2895 79.8624 115° Southeast  Level Estimated
02:26PM 60.2337 80.1021 115° Southeast  Level Estimated
02:26PM 59.6940 80.0560 115° Southeast 472 543 39,000  Level FlightAware
02:26PM 59.6270 80.2070 131° Southeast 471 542 39,000  Level FlightAware
02:27PM 59.5840 80.3020 132° Southeast 471 542 39,000  Level FlightAware
02:27PM 59.5340 80.4130 132° Southeast 470 541 39,000  Level FlightAware
02:28PM 59.4470 80.6040 132° Southeast 468 539 39,000  Level FlightAware
02:29PM 59.3690 80.7730 132° Southeast 466 536 39,000  Level FlightAware
02:30PM 59.3240 80.8700 132° Southeast 465 535 39,000  Level FlightAware
02:30PM 59.2740 80.9790 132° Southeast 462 532 39,000  Level FlightAware
02:31PM 59.2100 81.1170 132° Southeast 460 529 39,000  Level FlightAware
02:32PM 59.1310 81.2850 132° Southeast 460 529 39,000  Level FlightAware
02:33PM 59.0740 81.4060 132° Southeast 460 529 39,000  Level FlightAware
02:34PM 58.9740 81.6160 133° Southeast 460 529 39,000  Level FlightAware
02:35PM 58.9220 81.7240 133° Southeast 459 528 39,000  Level FlightAware
02:35PM 58.8800 81.8120 133° Southeast 459 528 39,000  Level FlightAware
02:36PM 58.7950 81.9880 133° Southeast 461 531 39,000  Level FlightAware
02:37PM 58.7450 82.0920 133° Southeast 462 532 39,000  Level FlightAware
02:37PM 58.6910 82.2010 134° Southeast 464 534 39,000  Level FlightAware
02:38PM 58.6030 82.3810 133° Southeast 465 535 39,000  Level FlightAware
02:39PM 58.5580 82.4710 134° Southeast 466 536 39,000  Level FlightAware
02:40PM 58.4710 82.6460 134° Southeast 467 537 39,000  Level FlightAware
02:41PM 58.3730 82.8420 134° Southeast 466 536 39,000  Level FlightAware
02:41PM 58.3370 82.9120 134° Southeast 468 539 39,000  Level FlightAware
02:42PM 58.2750 83.0080 141° Southeast 477 549 39,000  Level FlightAware
02:42PM 58.2080 83.1170 139° Southeast 478 550 39,000  Level FlightAware
02:43PM 58.1500 83.2100 140° Southeast 480 552 39,000  Level FlightAware
02:44PM 58.0550 83.3570 141° Southeast 486 559 39,000  Level FlightAware
02:45PM 57.9500 83.5180 141° Southeast 494 568 39,000  Level FlightAware
02:46PM 57.8690 83.6420 141° Southeast 494 568 39,000  Level FlightAware
02:47PM 57.7660 83.7990 141° Southeast 484 557 39,000  Level FlightAware
02:47PM 57.7210 83.8670 141° Southeast 485 558 39,000  Level FlightAware
02:48PM 57.6630 83.9540 141° Southeast 483 556 39,000  Level FlightAware
02:49PM 57.5730 84.0880 141° Southeast 483 556 39,000  Level FlightAware
02:49PM 57.5220 84.1650 141° Southeast 482 555 39,000  Level FlightAware
02:50PM 57.4170 84.3190 142° Southeast 479 551 39,000  Level FlightAware
02:51PM 57.2880 84.5090 141° Southeast 478 550 39,000  Level FlightAware
02:52PM 57.2360 84.5850 142° Southeast 476 548 39,000  Level FlightAware
02:52PM 57.1840 84.6600 142° Southeast 475 547 39,000  Level FlightAware
02:53PM 57.1180 84.7560 142° Southeast 475 547 39,000  Level FlightAware
02:54PM 57.0120 84.8990 144° Southeast 474 545 39,000  Level FlightAware
02:55PM 56.9210 85.0220 144° Southeast 473 544 39,000  Level FlightAware
02:55PM 56.8690 85.0920 144° Southeast 474 545 39,000  Level FlightAware
02:56PM 56.7730 85.2210 144° Southeast 472 543 39,000  Level FlightAware
02:57PM 56.7140 85.2990 144° Southeast 470 541 39,000  Level FlightAware
02:57PM 56.6450 85.4030 140° Southeast 465 535 39,000  Level FlightAware
02:59PM 56.4580 85.7250 136° Southeast 474 545 39,000  Level FlightAware
03:00PM 56.3620 85.8850 137° Southeast 475 547 39,000  Level FlightAware
03:01PM 56.2810 86.0200 137° Southeast 475 547 39,000  Level FlightAware
03:02PM 56.1770 86.1920 137° Southeast 474 545 39,000  Level FlightAware
03:03PM 56.1220 86.2830 137° Southeast 473 544 39,000  Level FlightAware
03:04PM 56.0320 86.4300 138° Southeast 474 545 39,000  Level FlightAware
03:04PM 55.9820 86.5120 137° Southeast 475 547 39,000  Level FlightAware
03:06PM 55.8760 86.6830 138° Southeast 478 550 39,000  Level FlightAware
03:06PM 55.8260 86.7630 138° Southeast 479 551 39,000  Level FlightAware
03:07PM 55.7200 86.9320 138° Southeast 478 550 39,000  Level FlightAware
03:08PM 55.6710 87.0110 138° Southeast 477 549 39,000  Level FlightAware
03:08PM 55.5980 87.1270 138° Southeast 474 545 39,000  Level FlightAware
03:09PM 55.5080 87.2670 139° Southeast 471 542 39,000  Level FlightAware
03:10PM 55.4110 87.4200 138° Southeast 471 542 39,000  Level FlightAware
03:11PM 55.3050 87.5840 139° Southeast 471 542 39,000  Level FlightAware
03:12PM 55.1990 87.7500 138° Southeast 473 544 39,000  Level FlightAware
03:13PM 55.1180 87.9260 129° Southeast 461 531 39,000  Level FlightAware
03:14PM 55.0900 88.0030 122° Southeast 461 531 39,000  Level FlightAware
03:15PM 55.0210 88.1910 123° Southeast 461 531 39,000  Level FlightAware
03:16PM 54.9510 88.3780 123° Southeast 464 534 39,000  Level FlightAware
03:17PM 54.8920 88.5340 123° Southeast 467 537 39,000  Level FlightAware
03:17PM 54.8520 88.6380 124° Southeast 469 540 39,000  Level FlightAware
03:18PM 54.8080 88.7530 124° Southeast 470 541 39,000  Level FlightAware
03:18PM 54.7790 88.8300 123° Southeast 470 541 39,000  Level FlightAware
03:19PM 54.7360 88.9400 124° Southeast 468 539 39,000  Level FlightAware
03:19PM 54.6940 89.0490 124° Southeast 468 539 39,000  Level FlightAware
03:20PM 54.6580 89.1410 124° Southeast 467 537 39,000  Level FlightAware
03:21PM 54.5920 89.3120 124° Southeast 467 537 39,000  Level FlightAware
03:22PM 54.5070 89.5280 124° Southeast 472 543 39,000  Level FlightAware
03:23PM 54.4340 89.7130 124° Southeast 475 547 39,000  Level FlightAware
03:24PM 54.3840 89.8370 125° Southeast 471 542 39,000  Level FlightAware
03:24PM 54.3470 89.9290 125° Southeast 471 542 39,000  Level FlightAware
03:25PM 54.3040 90.0360 125° Southeast 469 540 39,000  Level FlightAware
03:26PM 54.2310 90.2170 125° Southeast 469 540 39,000  Level FlightAware
03:26PM 54.2100 90.2700 124° Southeast 471 542 39,000  Level FlightAware
03:27PM 54.1510 90.4140 125° Southeast 471 542 39,000  Level FlightAware
03:28PM 54.0980 90.5470 124° Southeast 471 542 39,000  Level FlightAware
03:28PM 54.0340 90.6970 126° Southeast 473 544 39,000  Level FlightAware
03:29PM 53.9910 90.8010 125° Southeast 473 544 39,000  Level FlightAware
03:30PM 53.9440 90.9140 125° Southeast 473 544 39,000  Level FlightAware
03:30PM 53.8850 91.0540 126° Southeast 472 543 39,000  Level FlightAware
03:31PM 53.8590 91.1180 125° Southeast 472 543 39,000  Level FlightAware
03:31PM 53.7980 91.2610 126° Southeast 475 547 39,000  Level FlightAware
03:32PM 53.7600 91.3510 126° Southeast 473 544 39,000  Level FlightAware
03:33PM 53.7120 91.4730 124° Southeast 473 544 39,000  Level FlightAware
03:33PM 53.6770 91.5660 122° Southeast 470 541 39,000  Level FlightAware
03:34PM 53.6330 91.6860 122° Southeast 471 542 39,000  Level FlightAware
03:34PM 53.5990 91.7770 122° Southeast 473 544 39,000  Level FlightAware
03:35PM 53.5300 91.9590 122° Southeast 475 547 39,000  Level FlightAware
03:36PM 53.4850 92.0780 122° Southeast 476 548 39,000  Level FlightAware
03:37PM 53.4490 92.1770 121° Southeast 476 548 39,000  Level FlightAware
03:37PM 53.4060 92.2810 125° Southeast 478 550 39,000  Level FlightAware
03:38PM 53.3450 92.4440 122° Southeast 478 550 39,000  Level FlightAware
03:39PM 53.3090 92.5410 122° Southeast 478 550 39,000  Level FlightAware
03:39PM 53.2740 92.6370 121° Southeast 478 550 39,000  Level FlightAware
03:40PM 53.2010 92.8310 122° Southeast 478 550 39,000  Level FlightAware
03:41PM 53.1770 92.8950 122° Southeast 478 550 39,000  Level FlightAware
03:42PM 53.1040 93.0890 122° Southeast 478 550 39,000  Level FlightAware
03:42PM 53.0800 93.1520 122° Southeast 478 550 39,000  Level FlightAware
03:43PM 53.0430 93.2510 122° Southeast 478 550 39,000  Level FlightAware
03:44PM 52.9830 93.4120 122° Southeast 478 550 39,000  Level FlightAware
03:45PM 52.9330 93.5440 122° Southeast 478 550 39,000  Level FlightAware
03:46PM 52.8930 93.6500 122° Southeast 478 550 39,000  Level FlightAware
03:46PM 52.8460 93.7740 122° Southeast 478 550 39,000  Level FlightAware
03:47PM 52.8090 93.8720 122° Southeast 478 550 39,000 -156 Level FlightAware
03:50PM 52.6388 94.3482 120° Southeast  Level Estimated
03:51PM 52.5715 94.5339 121° Southeast  Level Estimated
03:52PM 52.5039 94.7190 121° Southeast  Level Estimated
03:53PM 52.4361 94.9036 121° Southeast  Level Estimated
03:54PM 52.3680 95.0876 121° Southeast  Level Estimated
03:55PM 52.2995 95.2710 121° Southeast  Level Estimated
03:56PM 52.2308 95.4539 121° Southeast  Level Estimated
03:57PM 52.1618 95.6362 122° Southeast  Level Estimated
03:58PM 52.0926 95.8179 122° Southeast  Level Estimated
03:59PM 52.0230 95.9991 122° Southeast  Level Estimated
04:00PM 51.9532 96.1797 122° Southeast  Level Estimated
04:01PM 51.8831 96.3597 122° Southeast  Level Estimated
04:02PM 51.8127 96.5392 122° Southeast  Level Estimated
04:03PM 51.7421 96.7181 122° Southeast  Level Estimated
04:04PM 51.6712 96.8965 123° Southeast  Level Estimated
04:05PM 51.6000 97.0743 123° Southeast  Level Estimated
04:06PM 51.5285 97.2516 123° Southeast  Level Estimated
04:07PM 51.4568 97.4283 123° Southeast  Level Estimated
04:08PM 51.3848 97.6044 123° Southeast  Level Estimated
04:09PM 51.3126 97.7800 123° Southeast  Level Estimated
04:10PM 51.2401 97.9550 123° Southeast  Level Estimated
04:11PM 51.1673 98.1295 124° Southeast  Level Estimated
04:12PM 51.0942 98.3034 124° Southeast  Level Estimated
04:13PM 51.0210 98.4768 124° Southeast  Level Estimated
04:14PM 50.9474 98.6496 124° Southeast  Level Estimated
04:15PM 50.8736 98.8219 124° Southeast  Level Estimated
04:16PM 50.7996 98.9936 124° Southeast  Level Estimated
04:17PM 50.7253 99.1648 124° Southeast  Level Estimated
04:18PM 50.6507 99.3355 125° Southeast  Level Estimated
04:19PM 50.5759 99.5056 125° Southeast  Level Estimated
04:20PM 50.5009 99.6751 125° Southeast  Level Estimated
04:21PM 50.4256 99.8442 125° Southeast  Level Estimated
04:22PM 50.3501 100.0127 125° Southeast  Level Estimated
04:23PM 50.2743 100.1806 125° Southeast  Level Estimated
04:24PM 50.1983 100.3480 125° Southeast  Level Estimated
04:25PM 50.1220 100.5149 125° Southeast  Level Estimated
04:26PM 50.0455 100.6813 126° Southeast  Level Estimated
04:27PM 49.9688 100.8471 126° Southeast  Level Estimated
04:28PM 49.8918 101.0124 126° Southeast  Level Estimated
04:29PM 49.8146 101.1772 126° Southeast  Level Estimated
04:30PM 49.7372 101.3414 126° Southeast  Level Estimated
04:31PM 49.6595 101.5051 126° Southeast  Level Estimated
04:32PM 49.5816 101.6683 126° Southeast  Level Estimated
04:33PM 49.5035 101.8310 126° Southeast  Level Estimated
04:34PM 49.4251 101.9931 127° Southeast  Level Estimated
04:35PM 49.3465 102.1548 127° Southeast  Level Estimated
04:36PM 49.2677 102.3159 127° Southeast  Level Estimated
04:37PM 49.1887 102.4765 127° Southeast  Level Estimated
04:38PM 49.1095 102.6366 127° Southeast  Level Estimated
04:39PM 49.0300 102.7962 127° Southeast  Level Estimated
04:40PM 48.9503 102.9553 127° Southeast  Level Estimated
04:41PM 48.8704 103.1138 127° Southeast  Level Estimated
04:42PM 48.7903 103.2719 128° Southeast  Level Estimated
04:43PM 48.7099 103.4294 128° Southeast  Level Estimated
04:44PM 48.6294 103.5865 128° Southeast  Level Estimated
04:45PM 48.5486 103.7430 128° Southeast  Level Estimated
04:46PM 48.4676 103.8991 128° Southeast  Level Estimated
04:47PM 48.3864 104.0546 128° Southeast  Level Estimated
04:48PM 48.3050 104.2097 128° Southeast  Level Estimated
04:49PM 48.2234 104.3642 128° Southeast  Level Estimated
04:50PM 48.1416 104.5183 128° Southeast  Level Estimated
04:51PM 48.0596 104.6719 129° Southeast  Level Estimated
04:52PM 47.9774 104.8250 129° Southeast  Level Estimated
04:53PM 47.8950 104.9776 129° Southeast  Level Estimated
04:54PM 47.8123 105.1297 129° Southeast  Level Estimated
04:55PM 47.7295 105.2813 129° Southeast  Level Estimated
04:56PM 47.6465 105.4325 129° Southeast  Level Estimated
04:57PM 47.5632 105.5832 129° Southeast  Level Estimated
04:58PM 47.4798 105.7333 129° Southeast  Level Estimated
04:59PM 47.3962 105.8830 129° Southeast  Level Estimated
05:00PM 47.3124 106.0323 130° Southeast  Level Estimated
05:01PM 47.2284 106.1811 130° Southeast  Level Estimated
05:02PM 47.1442 106.3294 130° Southeast  Level Estimated
05:03PM 47.0598 106.4772 130° Southeast  Level Estimated
05:04PM 46.9752 106.6245 130° Southeast  Level Estimated
05:05PM 46.8905 106.7714 130° Southeast  Level Estimated
05:06PM 46.8055 106.9178 130° Southeast  Level Estimated
05:07PM 46.7204 107.0638 130° Southeast  Level Estimated
05:08PM 46.6351 107.2093 130° Southeast  Level Estimated
05:09PM 46.5496 107.3544 131° Southeast  Level Estimated
05:10PM 46.4639 107.4989 131° Southeast  Level Estimated
05:11PM 46.3780 107.6431 131° Southeast  Level Estimated
05:12PM 46.2920 107.7868 131° Southeast  Level Estimated
05:13PM 46.2057 107.9300 131° Southeast  Level Estimated
05:14PM 46.1193 108.0728 131° Southeast  Level Estimated
05:15PM 46.0327 108.2151 131° Southeast  Level Estimated
05:16PM 45.9460 108.3570 131° Southeast  Level Estimated
05:17PM 45.8590 108.4984 131° Southeast  Level Estimated
05:18PM 45.7719 108.6394 132° Southeast  Level Estimated
05:19PM 45.6846 108.7800 132° Southeast  Level Estimated
05:20PM 45.5972 108.9201 132° Southeast  Level Estimated
05:21PM 45.5095 109.0598 132° Southeast  Level Estimated
05:22PM 45.4217 109.1991 132° Southeast  Level Estimated
05:23PM 45.3338 109.3379 132° Southeast  Level Estimated
05:24PM 45.2457 109.4763 132° Southeast  Level Estimated
05:25PM 45.1573 109.6142 132° Southeast  Level Estimated
05:26PM 45.0689 109.7517 132° Southeast  Level Estimated
05:27PM 44.9803 109.8889 132° Southeast  Level Estimated
05:28PM 44.8915 110.0255 132° Southeast  Level Estimated
05:29PM 44.8025 110.1618 133° Southeast  Level Estimated
05:30PM 44.7134 110.2976 133° Southeast  Level Estimated
05:31PM 44.6243 110.4327 133° Southeast  Level Estimated
05:32PM 44.5351 110.5675 133° Southeast  Level Estimated
05:33PM 44.4457 110.7017 133° Southeast  Level Estimated
05:34PM 44.3562 110.8356 133° Southeast  Level Estimated
05:35PM 44.2665 110.9691 133° Southeast  Level Estimated
05:36PM 44.1766 111.1021 133° Southeast  Level Estimated
05:37PM 44.0866 111.2348 133° Southeast  Level Estimated
05:38PM 43.9964 111.3670 133° Southeast  Level Estimated
05:39PM 43.9061 111.4989 134° Southeast  Level Estimated
05:40PM 43.8157 111.6303 134° Southeast  Level Estimated
05:41PM 43.7251 111.7614 134° Southeast  Level Estimated
05:42PM 43.6343 111.8920 134° Southeast  Level Estimated
05:43PM 43.5434 112.0223 134° Southeast  Level Estimated
05:44PM 43.4523 112.1522 134° Southeast  Level Estimated
05:45PM 43.3611 112.2816 134° Southeast  Level Estimated
05:46PM 43.2698 112.4107 134° Southeast  Level Estimated
05:47PM 43.1783 112.5394 134° Southeast  Level Estimated
05:48PM 43.0866 112.6677 134° Southeast  Level Estimated
05:49PM 42.9949 112.7956 134° Southeast  Level Estimated
05:50PM 42.9029 112.9232 135° Southeast  Level Estimated
05:51PM 42.8108 113.0504 135° Southeast  Level Estimated
05:52PM 42.7186 113.1772 135° Southeast  Level Estimated
05:53PM 42.6263 113.3036 135° Southeast  Level Estimated
05:54PM 42.5338 113.4296 135° Southeast  Level Estimated
05:55PM 42.4412 113.5553 135° Southeast  Level Estimated
05:56PM 42.3484 113.6806 135° Southeast  Level Estimated
05:57PM 42.2555 113.8055 135° Southeast  Level Estimated
05:58PM 42.1625 113.9300 135° Southeast  Level Estimated
05:59PM 42.0693 114.0542 135° Southeast  Level Estimated
06:00PM 41.9760 114.1781 135° Southeast  Level Estimated
06:01PM 41.8826 114.3015 135° Southeast  Level Estimated
06:02PM 41.7890 114.4246 136° Southeast  Level Estimated
06:03PM 41.6953 114.5474 136° Southeast  Level Estimated
06:04PM 41.6015 114.6697 136° Southeast  Level Estimated
06:05PM 41.5076 114.7918 136° Southeast  Level Estimated
06:06PM 41.4135 114.9135 136° Southeast  Level Estimated
06:07PM 41.3193 115.0348 136° Southeast  Level Estimated
06:07PM 40.3930 115.2320 136° Southeast 444 511 17,000  Level FlightAware
06:08PM 41.2249 115.1557 136° Southeast  Level Estimated
06:08PM 40.3920 115.3220 91° East 444 511 17,000  Level FlightAware
06:08PM 40.3910 115.4320 91° East 444 511 17,000  Level FlightAware
06:09PM 40.3900 115.5140 91° East 444 511 17,000  Level FlightAware
06:09PM 40.3890 115.5690 91° East 444 511 17,000  Level FlightAware
06:10PM 40.3880 115.6520 91° East 444 511 17,000  Level FlightAware
06:11PM 40.3860 115.7690 91° East 444 511 17,000 -1,914 Level FlightAware
06:13PM 40.0640 115.7640 181° South 337 388 11,800 -1,926 Descending FlightAware
06:14PM 39.9970 115.8210 147° Southeast 338 389 11,800 -122 Level FlightAware
06:14PM 39.9340 115.8840 143° Southeast 337 388 11,600 -661 Descending FlightAware
06:15PM 39.9000 115.9180 143° Southeast 330 380 10,600 -960 Descending FlightAware
06:16PM 39.8130 116.0040 143° Southeast 319 367 10,000 -724 Descending FlightAware
06:16PM 39.7930 116.0230 144° Southeast 310 357 9,900 -321 Descending FlightAware
06:17PM 39.7510 116.0650 142° Southeast 295 339 9,700 -590 Descending FlightAware
06:17PM 39.7270 116.0950 136° Southeast 302 348 9,300 -1,000 Descending FlightAware
06:18PM 39.7190 116.1370 104° East 305 351 8,900 -980 Descending FlightAware
06:18PM 39.7190 116.1830 90° East 301 346 8,500 -923 Descending FlightAware
06:19PM 39.7180 116.2300 92° East 298 343 8,100 -1,021 Descending FlightAware
06:19PM 39.7170 116.2660 92° East 296 341 7,700 -1,091 Descending FlightAware
06:19PM 39.7160 116.3080 92° East 293 337 7,300 -973 Descending FlightAware
06:20PM 39.7150 116.3300 93° East 292 336 7,100 -1,024 Descending FlightAware
06:20PM 39.7140 116.3800 91° East 289 333 6,600 -1,000 Descending FlightAware
06:21PM 39.7130 116.4340 91° East 291 335 6,100 -750 Descending FlightAware
06:21PM 39.7110 116.4900 93° East 280 322 5,800 -453 Descending FlightAware
06:22PM 39.7110 116.5250 90° East 265 305 5,700 -136 Descending FlightAware
06:22PM 39.7100 116.5600 92° East 248 285 5,700  Level FlightAware
06:22PM 39.7090 116.6000 92° East 242 278 5,700  Level FlightAware
06:23PM 39.7170 116.6300 71° East 251 289 5,700  Level FlightAware
06:23PM 39.7440 116.6520 32° Northeast 252 290 5,700  Level FlightAware
06:24PM 39.7660 116.6610 17° North 241 277 5,700 -500 Level FlightAware
06:24PM 39.7950 116.6590 357° North 228 262 5,300 -1,179 Descending FlightAware
06:24PM 39.8250 116.6540 353° North 224 258 4,600 -1,279 Descending FlightAware
06:25PM 39.8560 116.6490 353° North 199 229 4,000 -1,125 Descending FlightAware
06:26PM 39.8820 116.6450 353° North 190 219 3,400 -610 Descending FlightAware
06:26PM 39.9030 116.6420 354° North 190 219 3,400 -977 Level FlightAware
06:26PM 39.9200 116.6390 352° North 181 208 2,700 -2,455 Descending FlightAware
06:26PM 39.9250 116.6380 351° North 180 207 2,500 -1,000 Descending FlightAware
06:27PM 39.9570 116.6340 355° North 179 206 1,900 -909 Descending FlightAware
06:27PM 39.9800 116.6300 352° North 182 209 1,500 -955 Descending FlightAware
06:28PM 39.9960 116.6280 355° North 167 192 1,200 -923 Descending FlightAware
06:28PM 39.9990 116.6270 346° North 165 190 1,100 -171 Descending FlightAware
06:28PM 40.0170 116.6240 353° North 165 190 1,100  Level FlightAware
06:32PM 40.0801 116.5846 334° Northwest  Level Estimated
06:33PM 40.0801 116.5846 288° West  Level Estimated
06:34PM 40.0801 116.5846 288° West  Level Estimated
06:35PM 40.0801 116.5846 288° West  Level Estimated
06:36PM 40.0801 116.5846 288° West  Level Estimated

Login

Don't have an account? Register now (free) for customized features, flight alerts, and more!